Time;durP1;ratioP1;P1;durP2;ratioP2;P2;SDS_P1;SDS_P2;PMS_P1;PMS_P2;Temp;Humidity;BMP_temperature;BMP_pressure;BME280_temperature;BME280_humidity;BME280_pressure;Samples;Min_cycle;Max_cycle;Signal;HPM_P1;HPM_P2
2022/09/01 00:00:47;;;;;;;1.10;1.00;;;14.50;90.30;;;;;;5033391;28;20520;-55
2022/09/01 00:03:16;;;;;;;3.10;1.10;;;14.50;90.50;;;;;;5032925;28;20854;-56
2022/09/01 00:05:44;;;;;;;1.57;1.40;;;14.50;90.80;;;;;;5033437;28;20511;-55
2022/09/01 00:08:13;;;;;;;2.27;1.50;;;14.40;90.90;;;;;;5032894;28;20449;-55
2022/09/01 00:10:40;;;;;;;2.70;1.20;;;14.40;91.20;;;;;;5034126;28;20666;-55
2022/09/01 00:13:08;;;;;;;3.23;1.50;;;14.40;91.30;;;;;;5032852;28;20985;-55
2022/09/01 00:15:36;;;;;;;1.50;1.40;;;14.40;91.50;;;;;;5033196;28;20560;-55
2022/09/01 00:18:03;;;;;;;1.53;1.30;;;14.30;91.70;;;;;;5032975;28;20540;-55
2022/09/01 00:20:31;;;;;;;2.43;1.20;;;14.30;91.90;;;;;;5032818;28;20968;-55
2022/09/01 00:22:59;;;;;;;1.90;1.07;;;14.30;92.10;;;;;;5032788;28;20555;-55
2022/09/01 00:25:29;;;;;;;1.53;1.20;;;14.30;92.20;;;;;;5034211;28;20960;-56
2022/09/01 00:27:59;;;;;;;2.80;1.40;;;14.20;92.40;;;;;;5037357;28;20452;-55
2022/09/01 00:30:27;;;;;;;1.30;1.20;;;14.20;92.60;;;;;;5037213;28;20535;-55
2022/09/01 00:32:54;;;;;;;1.50;1.40;;;14.20;92.80;;;;;;5036733;28;20971;-55
2022/09/01 00:35:21;;;;;;;2.50;1.33;;;14.10;93.00;;;;;;5036940;28;20571;-55
2022/09/01 00:37:49;;;;;;;1.30;0.90;;;14.10;93.20;;;;;;5036580;28;20532;-55
2022/09/01 00:40:19;;;;;;;1.87;1.20;;;14.10;93.30;;;;;;5036599;28;20540;-55
2022/09/01 00:42:48;;;;;;;3.10;1.50;;;14.00;93.50;;;;;;5036531;28;20469;-55
2022/09/01 00:45:15;;;;;;;1.67;1.13;;;14.00;93.70;;;;;;5036931;28;20440;-55
2022/09/01 00:47:42;;;;;;;3.37;1.30;;;14.00;93.80;;;;;;5036866;28;20575;-56
2022/09/01 00:50:12;;;;;;;1.40;1.30;;;14.00;93.90;;;;;;5041069;28;21011;-55
2022/09/01 00:52:44;;;;;;;2.37;1.40;;;13.90;94.00;;;;;;5037152;28;20809;-55
2022/09/01 00:55:15;;;;;;;1.53;1.10;;;13.90;94.30;;;;;;5036358;28;20493;-55
2022/09/01 00:57:44;;;;;;;1.87;1.10;;;13.90;94.30;;;;;;5036825;28;20431;-55
2022/09/01 01:00:15;;;;;;;1.90;1.20;;;13.90;94.40;;;;;;5036493;28;20970;-55
2022/09/01 01:05:17;;;;;;;1.27;1.07;;;13.80;94.70;;;;;;5037428;22;20583;-58
2022/09/01 01:07:46;;;;;;;2.40;1.47;;;13.80;94.80;;;;;;5016364;28;20508;-59
2022/09/01 01:10:14;;;;;;;3.57;1.27;;;13.80;95.00;;;;;;5016690;28;20453;-58
2022/09/01 01:12:42;;;;;;;1.90;1.40;;;13.70;95.10;;;;;;5016841;28;20552;-58
2022/09/01 01:15:13;;;;;;;2.30;1.10;;;13.70;95.30;;;;;;5034910;28;20481;-59
2022/09/01 01:17:40;;;;;;;5.83;1.30;;;13.60;95.50;;;;;;5036609;28;20515;-59
2022/09/01 01:23:05;;;;;;;2.50;1.30;;;13.50;95.90;;;;;;5036280;28;20448;-59
2022/09/01 01:25:38;;;;;;;3.90;1.20;;;13.50;96.00;;;;;;5036010;28;20523;-58
2022/09/01 01:28:09;;;;;;;1.30;1.20;;;13.50;96.20;;;;;;5036106;28;20433;-59
2022/09/01 01:30:38;;;;;;;1.47;1.33;;;13.40;96.30;;;;;;5035981;28;20438;-59
2022/09/01 01:33:06;;;;;;;2.10;1.33;;;13.40;96.50;;;;;;5035987;28;20448;-60
2022/09/01 01:35:34;;;;;;;1.50;1.30;;;13.40;96.60;;;;;;5035732;28;20571;-59
2022/09/01 01:38:06;;;;;;;5.77;1.90;;;13.30;96.70;;;;;;5035229;28;20455;-59
2022/09/01 01:40:36;;;;;;;2.07;1.40;;;13.30;96.90;;;;;;5035718;28;20429;-59
2022/09/01 01:43:04;;;;;;;2.77;1.40;;;13.30;96.90;;;;;;5035951;28;20532;-59
2022/09/01 01:45:32;;;;;;;2.77;1.50;;;13.20;97.00;;;;;;5035516;28;20589;-58
2022/09/01 01:48:07;;;;;;;2.70;1.20;;;13.20;97.20;;;;;;5036030;28;20537;-59
2022/09/01 01:50:35;;;;;;;2.50;1.83;;;13.20;97.40;;;;;;5035591;28;20487;-59
2022/09/01 01:53:04;;;;;;;1.50;1.40;;;13.10;97.60;;;;;;5035499;28;20457;-59
2022/09/01 01:55:31;;;;;;;1.73;1.63;;;13.10;97.70;;;;;;5035402;28;20572;-59
2022/09/01 01:58:01;;;;;;;1.40;1.20;;;13.10;97.80;;;;;;5035417;28;20544;-58
2022/09/01 02:00:33;;;;;;;1.93;1.73;;;13.10;97.90;;;;;;5035214;28;20449;-59
2022/09/01 02:03:00;;;;;;;1.50;1.40;;;13.10;98.00;;;;;;5035017;28;20440;-58
2022/09/01 02:05:31;;;;;;;2.27;1.53;;;13.00;98.10;;;;;;5035185;28;20422;-59
2022/09/01 02:08:03;;;;;;;3.57;1.50;;;13.00;98.20;;;;;;5035004;28;20873;-59
2022/09/01 02:10:33;;;;;;;1.50;1.23;;;13.00;98.30;;;;;;5035086;28;20450;-59
2022/09/01 02:13:06;;;;;;;1.83;1.63;;;12.90;98.40;;;;;;5035158;28;21035;-59
2022/09/01 02:15:37;;;;;;;1.50;1.40;;;12.90;98.60;;;;;;5035912;28;20465;-58
2022/09/01 02:18:05;;;;;;;1.40;1.30;;;12.90;98.80;;;;;;5035371;28;20433;-59
2022/09/01 02:20:32;;;;;;;1.57;1.20;;;12.90;98.90;;;;;;5034820;28;20464;-58
2022/09/01 02:23:03;;;;;;;2.53;1.60;;;12.90;98.90;;;;;;5034730;28;20540;-59
2022/09/01 02:25:30;;;;;;;2.53;1.30;;;12.90;99.00;;;;;;5035283;28;20452;-59
2022/09/01 02:28:01;;;;;;;1.70;1.60;;;12.90;99.20;;;;;;5034877;28;20545;-59
2022/09/01 02:30:31;;;;;;;1.50;1.40;;;12.90;99.20;;;;;;5035273;28;20436;-59
2022/09/01 02:32:59;;;;;;;1.50;1.33;;;12.80;99.30;;;;;;5034819;28;20802;-60
2022/09/01 02:35:30;;;;;;;1.60;1.50;;;12.80;99.40;;;;;;5035024;28;20524;-59
2022/09/01 02:37:59;;;;;;;1.93;1.53;;;12.70;99.50;;;;;;5035147;28;20433;-59
2022/09/01 02:40:29;;;;;;;3.17;2.17;;;12.70;99.70;;;;;;5034811;28;20452;-59
2022/09/01 02:42:57;;;;;;;2.30;1.50;;;12.70;99.90;;;;;;5034691;28;20540;-60
2022/09/01 02:45:25;;;;;;;3.00;1.47;;;;;;;;;;5034611;28;20499;-59
2022/09/01 02:47:56;;;;;;;1.60;1.40;;;;;;;;;;5034742;28;20540;-59
2022/09/01 02:50:24;;;;;;;3.10;1.60;;;;;;;;;;5034119;28;20972;-59
2022/09/01 02:52:52;;;;;;;1.80;1.50;;;;;;;;;;5035657;28;20448;-59
2022/09/01 02:55:21;;;;;;;1.87;1.73;;;;;;;;;;5036156;28;20523;-59
2022/09/01 02:57:49;;;;;;;2.33;1.63;;;;;;;;;;5038355;28;20894;-59
2022/09/01 03:00:21;;;;;;;1.80;1.70;;;;;;;;;;5041480;28;20471;-58
2022/09/01 03:02:52;;;;;;;4.33;1.60;;;;;;;;;;5037625;28;20437;-59
2022/09/01 03:05:24;;;;;;;2.63;1.50;;;;;;;;;;5039158;28;20459;-59
2022/09/01 03:07:55;;;;;;;2.03;1.70;;;;;;;;;;5037485;28;20467;-59
2022/09/01 03:10:25;;;;;;;3.07;1.67;;;;;;;;;;5038000;28;20445;-59
2022/09/01 03:12:54;;;;;;;2.00;1.80;;;;;;;;;;5037871;28;20463;-60
2022/09/01 03:15:23;;;;;;;1.90;1.60;;;;;;;;;;5038420;28;21008;-59
2022/09/01 03:17:51;;;;;;;2.30;1.80;;;;;;;;;;5038814;28;20925;-59
2022/09/01 03:20:20;;;;;;;2.90;1.20;;;;;;;;;;5036314;28;20507;-59
2022/09/01 03:22:50;;;;;;;3.63;1.90;;;;;;;;;;5036361;28;20476;-58
2022/09/01 03:25:18;;;;;;;1.67;1.50;;;;;;;;;;5034205;28;21039;-58
2022/09/01 03:27:46;;;;;;;2.20;1.90;;;;;;;;;;5034258;28;20523;-59
2022/09/01 03:30:14;;;;;;;3.13;1.70;;;;;;;;;;5033965;28;20536;-59
2022/09/01 03:32:41;;;;;;;1.90;1.70;;;;;;;;;;5033752;28;20481;-59
2022/09/01 03:35:09;;;;;;;2.17;1.93;;;;;;;;;;5033379;28;20551;-59
2022/09/01 03:37:38;;;;;;;1.70;1.53;;;;;;;;;;5034007;28;20528;-59
2022/09/01 03:40:08;;;;;;;2.10;1.90;;;;;;;;;;5034591;28;20494;-59
2022/09/01 03:42:36;;;;;;;2.37;2.00;;;;;;;;;;5034678;28;20483;-59
2022/09/01 03:45:07;;;;;;;3.63;1.80;;;;;;;;;;5034462;28;20548;-59
2022/09/01 03:47:39;;;;;;;1.97;1.77;;;;;;;;;;5034706;28;20829;-59
2022/09/01 03:50:09;;;;;;;2.30;1.60;;;;;;;;;;5034789;28;20444;-59
2022/09/01 03:52:39;;;;;;;1.80;1.70;;;;;;;;;;5035398;28;20828;-59
2022/09/01 03:55:09;;;;;;;2.10;1.70;;;;;;;;;;5034786;28;21040;-59
2022/09/01 03:57:41;;;;;;;3.87;1.63;;;;;;;;;;5035206;28;20445;-59
2022/09/01 04:00:19;;;;;;;2.30;2.10;;;;;;;;;;5034555;28;20851;-57
2022/09/01 04:02:47;;;;;;;2.73;2.10;;;;;;;;;;5035235;28;20519;-58
2022/09/01 04:05:15;;;;;;;2.00;1.57;;;;;;;;;;5034566;28;20845;-57
2022/09/01 04:10:13;;;;;;;2.17;2.00;;;;;;;;;;5153897;27;20584;-59
2022/09/01 04:12:41;;;;;;;2.47;2.03;;;;;;;;;;5153428;27;20475;-59
2022/09/01 04:15:09;;;;;;;2.47;2.27;;;;;;;;;;5133344;27;20496;-59
2022/09/01 04:20:22;;;;;;;2.43;2.23;;;;;;;;;;5132430;28;20526;-59
2022/09/01 04:22:51;;;;;;;2.37;2.27;;;;;;;;;;5132704;28;20453;-60
2022/09/01 04:25:26;;;;;;;5.90;2.80;;;;;;;;;;5132468;28;20535;-60
2022/09/01 04:27:54;;;;;;;2.17;1.97;;;;;;;;;;5133169;28;20432;-59
2022/09/01 04:30:23;;;;;;;2.33;2.13;;;;;;;;;;5133294;28;20452;-60
2022/09/01 04:32:54;;;;;;;2.43;2.23;;;;;;;;;;5132633;28;20449;-59
2022/09/01 04:35:26;;;;;;;4.47;2.10;;;;;;;;;;5131875;28;20931;-59
2022/09/01 04:37:54;;;;;;;2.47;2.27;;;;;;;;;;5131938;28;20453;-59
2022/09/01 04:40:23;;;;;;;2.47;2.27;;;;;;;;;;5132281;28;20476;-59
2022/09/01 04:42:50;;;;;;;2.40;2.20;;;;;;;;;;5132833;28;20441;-59
2022/09/01 04:45:23;;;;;;;2.93;2.37;;;;;;;;;;5131938;27;20518;-59
2022/09/01 04:47:51;;;;;;;2.73;2.13;;;;;;;;;;5131461;28;20433;-60
2022/09/01 04:50:20;;;;;;;2.50;2.27;;;;;;;;;;5134217;28;20437;-59
2022/09/01 04:52:49;;;;;;;2.63;2.40;;;;;;;;;;5134344;28;20437;-60
2022/09/01 04:55:17;;;;;;;3.40;2.40;;;11.90;99.90;;;;;;5134641;27;20552;-59
2022/09/01 04:57:48;;;;;;;2.63;2.13;;;12.30;99.90;;;;;;5134249;28;20447;-58
2022/09/01 05:00:22;;;;;;;2.40;2.20;;;12.40;99.90;;;;;;5133658;28;20447;-59
2022/09/01 05:02:52;;;;;;;2.50;2.30;;;12.50;99.90;;;;;;5132317;28;20409;-58
2022/09/01 05:05:21;;;;;;;2.90;2.23;;;12.60;99.90;;;;;;5133506;28;20448;-58
2022/09/01 05:07:51;;;;;;;2.63;2.43;;;12.80;99.90;;;;;;5133144;28;20469;-59
2022/09/01 05:10:20;;;;;;;3.07;1.97;;;12.80;99.90;;;;;;5132550;28;20480;-58
2022/09/01 05:12:50;;;;;;;2.60;1.93;;;12.90;99.90;;;;;;5132797;28;20485;-59
2022/09/01 05:15:19;;;;;;;3.07;2.40;;;13.00;99.90;;;;;;5131490;27;20465;-59
2022/09/01 05:17:48;;;;;;;4.50;2.10;;;13.10;99.90;;;;;;5130492;28;20494;-59
2022/09/01 05:20:15;;;;;;;2.67;2.47;;;13.10;99.90;;;;;;5130002;27;20939;-57
2022/09/01 05:22:43;;;;;;;2.93;2.00;;;13.10;99.90;;;;;;5132178;27;20497;-58
2022/09/01 05:25:13;;;;;;;1.77;1.67;;;13.10;99.90;;;;;;5144814;27;20472;-57
2022/09/01 05:27:48;;;;;;;4.60;2.53;;;13.00;99.90;;;;;;5130694;28;20547;-58
2022/09/01 05:30:18;;;;;;;3.30;2.60;;;13.00;99.90;;;;;;5130220;28;20461;-58
2022/09/01 05:32:47;;;;;;;3.13;1.90;;;12.90;99.90;;;;;;5130439;28;20528;-58
2022/09/01 05:35:14;;;;;;;5.63;2.77;;;12.90;99.90;;;;;;5129964;28;20539;-59
2022/09/01 05:37:42;;;;;;;2.90;2.00;;;12.80;99.90;;;;;;5129023;28;20438;-57
2022/09/01 05:40:14;;;;;;;2.67;2.47;;;12.80;99.90;;;;;;5128265;28;20553;-58
2022/09/01 05:42:42;;;;;;;2.53;2.33;;;12.80;99.90;;;;;;5127349;28;20422;-58
2022/09/01 05:45:13;;;;;;;2.90;2.53;;;12.70;99.90;;;;;;5127828;28;20469;-58
2022/09/01 05:47:42;;;;;;;2.63;2.43;;;12.80;99.90;;;;;;5129137;28;20489;-57
2022/09/01 05:50:10;;;;;;;2.53;2.33;;;12.80;99.90;;;;;;5126184;28;20485;-59
2022/09/01 05:52:39;;;;;;;4.03;2.20;;;12.90;99.90;;;;;;5126620;28;20477;-57
2022/09/01 05:55:08;;;;;;;3.13;2.87;;;12.90;99.90;;;;;;5125530;28;20487;-57
2022/09/01 05:57:38;;;;;;;3.40;3.10;;;13.00;99.90;;;;;;5126953;28;20445;-58
2022/09/01 06:00:12;;;;;;;2.60;2.40;;;13.10;99.90;;;;;;5126280;28;20513;-58
2022/09/01 06:02:41;;;;;;;2.70;2.43;;;13.10;99.90;;;;;;5126207;28;20825;-58
2022/09/01 06:05:10;;;;;;;2.77;2.27;;;13.20;99.90;;;;;;5126984;28;20465;-58
2022/09/01 06:07:39;;;;;;;2.33;2.13;;;13.30;99.90;;;;;;5126711;28;20452;-58
2022/09/01 06:10:07;;;;;;;3.13;2.80;;;13.40;99.90;;;;;;5122065;28;20485;-58
2022/09/01 06:12:35;;;;;;;5.30;2.20;;;13.50;99.90;;;;;;5121202;28;20452;-58
2022/09/01 06:15:02;;;;;;;5.93;3.47;;;13.60;99.90;;;;;;5121037;28;20461;-58
2022/09/01 06:17:30;;;;;;;4.87;4.00;;;13.60;99.90;;;;;;5124208;28;20434;-58
2022/09/01 06:19:59;;;;;;;9.53;5.40;;;13.70;99.90;;;;;;5123876;28;20445;-59
2022/09/01 06:22:28;;;;;;;6.97;5.20;;;13.80;99.90;;;;;;5123937;28;20552;-58
2022/09/01 06:24:58;;;;;;;14.83;6.50;;;13.90;99.90;;;;;;5125242;28;20996;-58
2022/09/01 06:27:26;;;;;;;8.80;7.90;;;13.90;99.90;;;;;;5121680;28;20426;-58
2022/09/01 06:29:55;;;;;;;10.47;9.03;;;14.00;99.90;;;;;;5113441;28;20478;-58
2022/09/01 06:32:24;;;;;;;11.07;9.30;;;14.10;99.90;;;;;;5100339;28;20449;-60
2022/09/01 06:34:52;;;;;;;12.47;7.73;;;14.20;99.90;;;;;;5100307;28;20469;-58
2022/09/01 06:37:21;;;;;;;8.40;6.80;;;14.30;99.90;;;;;;5100581;28;20453;-60
2022/09/01 06:39:49;;;;;;;11.50;7.27;;;14.40;99.90;;;;;;5118204;28;20437;-59
2022/09/01 06:42:18;;;;;;;10.03;5.20;;;14.50;99.90;;;;;;5124706;28;20537;-61
2022/09/01 06:44:45;;;;;;;9.70;4.40;;;14.60;99.90;;;;;;5124352;28;20462;-59
2022/09/01 06:47:14;;;;;;;9.93;3.87;;;14.80;99.90;;;;;;5122463;28;20978;-59
2022/09/01 06:49:41;;;;;;;3.30;3.00;;;14.90;99.90;;;;;;5117690;28;20979;-59
2022/09/01 06:52:10;;;;;;;5.33;3.00;;;14.90;99.90;;;;;;5115876;28;20812;-60
2022/09/01 06:54:42;;;;;;;4.33;2.77;;;15.00;99.90;;;;;;5115670;28;20473;-59
2022/09/01 06:57:09;;;;;;;6.50;3.80;;;15.00;99.90;;;;;;5115820;28;20786;-59
2022/09/01 06:59:37;;;;;;;3.87;2.80;;;15.10;99.90;;;;;;5115882;28;20447;-59
2022/09/01 07:02:05;;;;;;;6.13;2.97;;;15.20;99.80;;;;;;5116958;28;20481;-59
2022/09/01 07:04:33;;;;;;;9.00;2.80;;;15.40;99.50;;;;;;5127268;22;20570;-56
2022/09/01 07:07:03;;;;;;;3.80;2.30;;;15.50;99.10;;;;;;5073514;28;20962;-56
2022/09/01 07:09:30;;;;;;;6.00;3.37;;;15.70;98.80;;;;;;5072949;28;20474;-56
2022/09/01 07:12:02;;;;;;;6.83;2.80;;;15.70;98.20;;;;;;5073482;28;20523;-56
2022/09/01 07:14:30;;;;;;;4.30;2.30;;;15.80;97.90;;;;;;5073822;28;20956;-56
2022/09/01 07:16:58;;;;;;;6.10;2.30;;;16.00;97.40;;;;;;5072695;28;20510;-55
2022/09/01 07:19:26;;;;;;;2.90;2.33;;;16.00;97.20;;;;;;5060863;28;20454;-56
2022/09/01 07:21:54;;;;;;;4.80;2.23;;;16.20;96.60;;;;;;5078349;28;20596;-55
2022/09/01 07:24:21;;;;;;;4.50;2.47;;;16.30;96.10;;;;;;5074400;28;20665;-55
2022/09/01 07:26:50;;;;;;;7.57;2.80;;;16.40;95.40;;;;;;5073093;28;20526;-55
2022/09/01 07:29:21;;;;;;;4.20;1.90;;;16.40;94.90;;;;;;5074185;28;20479;-55
2022/09/01 07:31:49;;;;;;;5.87;2.20;;;16.50;94.50;;;;;;5073903;28;20814;-56
2022/09/01 07:34:16;;;;;;;4.50;2.23;;;16.60;93.90;;;;;;5073633;28;20467;-55
2022/09/01 07:36:44;;;;;;;2.90;1.70;;;16.70;93.50;;;;;;5070927;28;20452;-55
2022/09/01 07:39:13;;;;;;;3.10;1.50;;;16.80;93.00;;;;;;5074770;28;20809;-55
2022/09/01 07:41:42;;;;;;;4.03;2.10;;;16.80;92.30;;;;;;5073056;28;20489;-55
2022/09/01 07:44:12;;;;;;;4.10;1.70;;;16.90;91.60;;;;;;5072683;28;20566;-57
2022/09/01 07:46:42;;;;;;;8.10;2.27;;;17.00;91.10;;;;;;5073861;28;20434;-55
2022/09/01 07:49:10;;;;;;;1.90;1.70;;;17.10;90.40;;;;;;5073431;28;20518;-56
2022/09/01 07:51:38;;;;;;;4.60;1.50;;;17.30;89.70;;;;;;5073368;28;20445;-56
2022/09/01 07:54:05;;;;;;;1.93;1.33;;;17.40;88.00;;;;;;5073035;28;20526;-56
2022/09/01 07:56:33;;;;;;;5.10;1.97;;;17.50;86.30;;;;;;5073061;28;20443;-55
2022/09/01 07:59:01;;;;;;;2.93;1.50;;;17.60;83.50;;;;;;5073092;28;20568;-56
2022/09/01 08:01:28;;;;;;;4.13;1.27;;;17.60;81.20;;;;;;5073914;28;20493;-56
2022/09/01 08:04:00;;;;;;;1.13;1.03;;;17.70;79.60;;;;;;5073151;28;20813;-56
2022/09/01 08:06:30;;;;;;;1.90;1.27;;;17.80;77.90;;;;;;5073646;28;20831;-57
2022/09/01 08:08:59;;;;;;;4.53;1.37;;;17.90;77.30;;;;;;5073029;28;20443;-56
2022/09/01 08:11:30;;;;;;;2.87;1.40;;;18.00;75.30;;;;;;5073480;28;20447;-56
2022/09/01 08:13:59;;;;;;;1.43;1.00;;;18.10;73.50;;;;;;5073923;28;20462;-56
2022/09/01 08:16:27;;;;;;;1.57;1.47;;;18.20;71.80;;;;;;5073187;28;20451;-56
2022/09/01 08:18:56;;;;;;;1.30;0.83;;;18.30;70.20;;;;;;5072579;28;21013;-56
2022/09/01 08:21:24;;;;;;;3.57;1.40;;;18.50;68.40;;;;;;5073208;28;20530;-56
2022/09/01 08:23:53;;;;;;;1.17;1.07;;;18.60;66.20;;;;;;5073190;28;20446;-56
2022/09/01 08:26:22;;;;;;;2.07;1.17;;;18.60;64.30;;;;;;5073365;28;20530;-56
2022/09/01 08:28:50;;;;;;;1.50;1.10;;;18.70;61.60;;;;;;5073374;28;20535;-56
2022/09/01 08:31:21;;;;;;;1.83;1.10;;;18.80;60.50;;;;;;5072926;28;20565;-56
2022/09/01 08:33:54;;;;;;;1.40;0.80;;;19.00;57.30;;;;;;5072421;28;20847;-56
2022/09/01 08:36:23;;;;;;;1.80;0.80;;;19.00;56.60;;;;;;5073082;28;20530;-56
2022/09/01 08:38:51;;;;;;;4.80;1.00;;;19.00;55.70;;;;;;5073073;28;20982;-55
2022/09/01 08:41:26;;;;;;;5.00;1.20;;;19.10;54.80;;;;;;5072826;28;20470;-56
2022/09/01 08:44:09;;;;;;;2.10;0.80;;;19.20;54.00;;;;;;5072766;28;20514;-55
2022/09/01 08:46:41;;;;;;;1.20;1.00;;;19.20;53.20;;;;;;5072076;28;20884;-55
2022/09/01 08:49:13;;;;;;;2.07;1.00;;;19.30;52.80;;;;;;5072497;28;20435;-56
2022/09/01 08:51:47;;;;;;;1.77;1.03;;;19.30;52.10;;;;;;5072444;28;20502;-56
2022/09/01 08:54:22;;;;;;;1.80;0.93;;;19.40;51.70;;;;;;5072598;28;20553;-57
2022/09/01 08:56:53;;;;;;;1.87;1.40;;;19.50;51.60;;;;;;5075964;28;20848;-57
2022/09/01 08:59:20;;;;;;;1.27;0.80;;;19.60;51.00;;;;;;5075472;28;20584;-56
2022/09/01 09:01:57;;;;;;;1.40;0.80;;;19.70;50.80;;;;;;5075842;28;20946;-56
2022/09/01 09:04:40;;;;;;;1.20;0.70;;;19.80;50.50;;;;;;5075286;28;20561;-56
2022/09/01 09:07:17;;;;;;;1.23;0.83;;;20.00;50.20;;;;;;5075628;28;20510;-56
2022/09/01 09:09:50;;;;;;;1.60;1.23;;;20.00;49.70;;;;;;5075286;28;21056;-56
2022/09/01 09:12:35;;;;;;;1.13;0.80;;;20.00;49.70;;;;;;5075305;28;20998;-56
2022/09/01 09:15:14;;;;;;;1.23;0.83;;;20.10;49.70;;;;;;5077128;28;20474;-57
2022/09/01 09:17:46;;;;;;;2.20;1.00;;;20.20;49.80;;;;;;5076737;28;20938;-56
2022/09/01 09:20:13;;;;;;;3.63;1.10;;;20.30;49.70;;;;;;5077421;28;20420;-56
2022/09/01 09:22:45;;;;;;;2.20;1.00;;;20.40;49.60;;;;;;5076822;28;20467;-56
2022/09/01 09:25:14;;;;;;;2.30;1.03;;;20.70;49.60;;;;;;5077074;28;20480;-56
2022/09/01 09:27:44;;;;;;;1.30;1.17;;;20.70;48.90;;;;;;5075964;28;20474;-54
2022/09/01 09:30:14;;;;;;;1.67;0.87;;;20.80;48.60;;;;;;5076788;28;20847;-55
2022/09/01 09:32:50;;;;;;;1.10;0.93;;;20.80;48.70;;;;;;5075892;28;20435;-55
2022/09/01 09:35:22;;;;;;;1.10;0.80;;;20.90;48.90;;;;;;5075541;28;20477;-55
2022/09/01 09:37:51;;;;;;;2.03;1.20;;;21.00;48.70;;;;;;5074947;28;20429;-55
2022/09/01 09:40:21;;;;;;;2.30;1.10;;;21.00;48.50;;;;;;5074988;28;20823;-55
2022/09/01 09:43:07;;;;;;;1.00;0.77;;;21.00;48.30;;;;;;5074863;28;20447;-56
2022/09/01 09:45:37;;;;;;;1.30;0.80;;;21.00;48.20;;;;;;5075327;28;20467;-56
2022/09/01 09:48:09;;;;;;;2.30;1.23;;;21.00;48.30;;;;;;5074464;28;20544;-53
2022/09/01 09:50:38;;;;;;;1.43;0.77;;;21.10;48.10;;;;;;5074518;28;20488;-56
2022/09/01 09:53:26;;;;;;;2.23;1.00;;;21.10;47.70;;;;;;5075840;28;20826;-55
2022/09/01 09:56:00;;;;;;;1.40;0.60;;;21.20;47.10;;;;;;5075015;28;20456;-56
2022/09/01 09:58:35;;;;;;;1.97;1.03;;;21.20;46.40;;;;;;5074775;28;20527;-56
2022/09/01 10:01:09;;;;;;;2.50;1.40;;;21.30;46.00;;;;;;5074951;28;20462;-55
2022/09/01 10:03:49;;;;;;;2.37;1.10;;;21.30;45.70;;;;;;5074714;28;20890;-55
2022/09/01 10:06:31;;;;;;;2.13;0.80;;;21.40;45.20;;;;;;5074452;28;20817;-57
2022/09/01 10:09:02;;;;;;;1.87;0.70;;;21.50;45.40;;;;;;5074932;28;20498;-54
2022/09/01 10:11:35;;;;;;;1.17;0.80;;;21.60;44.60;;;;;;5076009;28;20464;-54
2022/09/01 10:14:06;;;;;;;1.30;0.93;;;21.60;44.00;;;;;;5076125;28;20429;-55
2022/09/01 10:16:38;;;;;;;2.07;1.00;;;21.60;43.70;;;;;;5076780;28;20421;-55
2022/09/01 10:19:11;;;;;;;2.70;0.90;;;21.60;43.80;;;;;;5076513;28;20484;-56
2022/09/01 10:21:41;;;;;;;1.10;1.00;;;21.70;43.60;;;;;;5076058;28;20446;-55
2022/09/01 10:24:18;;;;;;;2.50;0.80;;;21.80;43.40;;;;;;5076259;28;20523;-56
2022/09/01 10:26:49;;;;;;;1.07;0.83;;;21.90;43.10;;;;;;5075559;28;20432;-55
2022/09/01 10:29:24;;;;;;;1.83;0.90;;;22.00;43.00;;;;;;5075109;28;20438;-56
2022/09/01 10:31:53;;;;;;;2.13;0.60;;;22.10;42.50;;;;;;5075609;28;20480;-56
2022/09/01 10:34:22;;;;;;;2.40;0.80;;;22.10;42.20;;;;;;5074925;28;21004;-55
2022/09/01 10:36:50;;;;;;;1.63;1.20;;;22.20;41.80;;;;;;5073983;28;20465;-55
2022/09/01 10:39:19;;;;;;;2.27;0.73;;;22.30;41.30;;;;;;5073929;28;20481;-55
2022/09/01 10:41:55;;;;;;;1.77;1.10;;;22.40;40.70;;;;;;5074046;28;20472;-56
2022/09/01 10:44:29;;;;;;;1.67;1.00;;;22.50;40.10;;;;;;5074023;28;20542;-55
2022/09/01 10:46:58;;;;;;;1.30;0.90;;;22.60;40.30;;;;;;5073656;28;20435;-56
2022/09/01 10:50:00;;;;;;;4.10;0.90;;;22.70;40.00;;;;;;5074080;28;20511;-55
2022/09/01 10:53:01;;;;;;;2.50;0.93;;;22.80;40.20;;;;;;5073294;28;20480;-56
2022/09/01 10:55:38;;;;;;;2.13;1.00;;;22.80;39.80;;;;;;5040409;28;20549;-54
2022/09/01 10:58:29;;;;;;;2.50;1.30;;;22.90;40.00;;;;;;5073571;28;20474;-54
2022/09/01 11:00:57;;;;;;;0.80;0.60;;;23.00;39.80;;;;;;5073484;28;20434;-56
2022/09/01 11:03:51;;;;;;;1.60;1.50;;;23.20;39.90;;;;;;5073243;28;20449;-55
2022/09/01 11:07:01;;;;;;;1.27;0.63;;;23.20;39.50;;;;;;5059527;28;20579;-55
2022/09/01 11:09:32;;;;;;;1.30;0.80;;;23.10;38.40;;;;;;5078087;28;20940;-55
2022/09/01 11:12:47;;;;;;;1.13;0.67;;;22.90;38.10;;;;;;5088168;28;20559;-55
2022/09/01 11:15:34;;;;;;;0.97;0.73;;;22.80;37.80;;;;;;5074878;28;20497;-55
2022/09/01 11:18:02;;;;;;;1.13;0.80;;;22.80;37.80;;;;;;5073646;28;20877;-54
2022/09/01 11:20:33;;;;;;;2.40;0.70;;;22.80;37.70;;;;;;5073280;28;20811;-55
2022/09/01 11:23:04;;;;;;;1.10;0.80;;;22.80;37.60;;;;;;5073267;28;20441;-55
2022/09/01 11:25:36;;;;;;;1.83;0.70;;;22.90;37.50;;;;;;5073544;28;20459;-56
2022/09/01 11:28:10;;;;;;;2.40;1.00;;;23.00;37.40;;;;;;5072757;28;20984;-56
2022/09/01 11:30:51;;;;;;;1.50;0.80;;;23.10;37.50;;;;;;5073020;28;20466;-55
2022/09/01 11:33:41;;;;;;;1.00;0.60;;;23.30;37.40;;;;;;5074357;28;20594;-55
2022/09/01 11:36:17;;;;;;;2.17;0.80;;;23.50;36.80;;;;;;5074020;28;20471;-56
2022/09/01 11:38:53;;;;;;;1.00;0.80;;;23.60;36.20;;;;;;5074178;28;20439;-56
2022/09/01 11:41:32;;;;;;;1.10;0.80;;;23.60;36.40;;;;;;5069331;28;20536;-56
2022/09/01 11:44:03;;;;;;;2.67;0.83;;;23.80;36.50;;;;;;5085681;28;20864;-55
2022/09/01 11:46:33;;;;;;;1.10;0.67;;;24.00;36.40;;;;;;5066945;28;20832;-56
2022/09/01 11:49:06;;;;;;;2.13;0.70;;;24.10;36.00;;;;;;5074195;28;20527;-55
2022/09/01 11:51:45;;;;;;;2.67;1.00;;;24.00;35.90;;;;;;5074278;28;20468;-57
2022/09/01 11:54:14;;;;;;;1.67;0.77;;;23.90;35.90;;;;;;5073913;28;20469;-56
2022/09/01 11:56:41;;;;;;;2.70;0.73;;;24.00;36.00;;;;;;5074101;28;20913;-55
2022/09/01 11:59:10;;;;;;;1.70;1.10;;;24.10;35.80;;;;;;5073114;28;20578;-55
2022/09/01 12:01:39;;;;;;;1.73;0.80;;;24.00;36.00;;;;;;5072172;28;20500;-56
2022/09/01 12:04:32;;;;;;;1.40;0.97;;;23.70;36.30;;;;;;5073472;28;20470;-54
2022/09/01 12:07:02;;;;;;;0.90;0.70;;;23.60;36.50;;;;;;5071752;28;20456;-56
2022/09/01 12:09:35;;;;;;;1.10;0.80;;;23.80;36.60;;;;;;5074784;28;20435;-55
2022/09/01 12:12:03;;;;;;;2.07;0.80;;;24.10;36.60;;;;;;5074184;28;20936;-55
2022/09/01 12:14:32;;;;;;;1.40;0.90;;;24.50;36.60;;;;;;5073120;28;20906;-55
2022/09/01 12:17:03;;;;;;;2.00;1.00;;;24.70;36.70;;;;;;5072225;28;20474;-56
2022/09/01 12:19:33;;;;;;;1.30;0.83;;;24.70;36.90;;;;;;5072589;28;20212;-56
2022/09/01 12:22:03;;;;;;;2.37;1.03;;;24.70;37.00;;;;;;5072103;28;20475;-56
2022/09/01 12:24:35;;;;;;;2.07;0.90;;;24.60;37.00;;;;;;5072368;28;20948;-56
2022/09/01 12:27:03;;;;;;;2.57;1.17;;;24.60;37.20;;;;;;5072780;28;20809;-55
2022/09/01 12:29:32;;;;;;;1.20;1.00;;;24.60;37.10;;;;;;5072937;28;20456;-55
2022/09/01 12:32:00;;;;;;;2.00;0.70;;;24.60;37.20;;;;;;5076398;28;20562;-54
2022/09/01 12:34:37;;;;;;;2.30;0.90;;;24.60;37.30;;;;;;5076078;28;20442;-52
2022/09/01 12:37:12;;;;;;;1.77;1.10;;;24.80;37.20;;;;;;5076226;28;20718;-56
2022/09/01 12:39:41;;;;;;;1.73;1.03;;;24.90;37.00;;;;;;5076343;28;20518;-56
2022/09/01 12:42:13;;;;;;;2.30;0.80;;;24.70;36.80;;;;;;5076290;28;20446;-56
2022/09/01 12:44:49;;;;;;;1.17;0.60;;;24.50;36.50;;;;;;5076378;28;20486;-54
2022/09/01 12:47:50;;;;;;;2.13;0.93;;;24.30;36.50;;;;;;5076536;28;20421;-55
2022/09/01 12:50:52;;;;;;;2.33;1.10;;;24.10;36.50;;;;;;5075921;28;20457;-54
2022/09/01 12:53:27;;;;;;;1.43;0.87;;;23.90;36.60;;;;;;5076217;28;20875;-56
2022/09/01 12:56:17;;;;;;;1.43;1.03;;;23.80;37.10;;;;;;5075751;28;20471;-57
2022/09/01 12:58:52;;;;;;;1.70;0.60;;;24.00;37.40;;;;;;5075853;28;20428;-56
2022/09/01 13:01:31;;;;;;;2.30;0.93;;;24.30;37.30;;;;;;5076235;28;20789;-56
2022/09/01 13:04:26;;;;;;;2.27;1.07;;;24.50;37.00;;;;;;5075726;28;20860;-55
2022/09/01 13:06:56;;;;;;;1.90;1.00;;;24.70;36.80;;;;;;5103978;22;20491;-58
2022/09/01 13:09:23;;;;;;;1.43;0.90;;;24.90;36.60;;;;;;5096865;28;20467;-58
2022/09/01 13:11:51;;;;;;;2.13;1.00;;;24.70;36.60;;;;;;5096303;28;20937;-56
2022/09/01 13:14:18;;;;;;;1.00;0.80;;;24.50;36.80;;;;;;5096522;28;20503;-58
2022/09/01 13:16:47;;;;;;;1.20;0.60;;;24.30;37.10;;;;;;5081974;28;20517;-57
2022/09/01 13:19:14;;;;;;;3.00;0.97;;;24.10;37.40;;;;;;5075768;28;20944;-58
2022/09/01 13:21:41;;;;;;;1.33;0.67;;;24.20;37.70;;;;;;5076045;28;20506;-59
2022/09/01 13:24:08;;;;;;;1.23;0.93;;;24.30;37.40;;;;;;5075739;28;20599;-57
2022/09/01 13:26:37;;;;;;;1.53;1.00;;;24.40;37.30;;;;;;5075648;28;20471;-58
2022/09/01 13:29:04;;;;;;;1.87;0.70;;;24.40;37.20;;;;;;5075135;28;21012;-58
2022/09/01 13:31:31;;;;;;;2.30;1.33;;;24.30;37.10;;;;;;5074816;28;20477;-58
2022/09/01 13:34:00;;;;;;;3.93;0.90;;;24.20;37.30;;;;;;5074823;28;20458;-57